UPPER DEERFIELD - NJ NJ-MESONET current weather conditions

sailwx.info

Wind from 080 at 5 knots gusting 6

Air temperature 21.7° C
Dewpoint 21.7° C

Last reported at 2020-Jul-04 08:45 UTC.
Time now 2020-Jul-04 12:25 UTC

Location: N 39°31' W 075°12'.
View on Google Maps.

See reports from other nearby stations

  
Tides and Currents Weather Stations Pressure Air Temp Water Temp Dewpoint Dewpoint Depression Visibility Wind Speed Wind Dir Waves Ship Positions
date/time (UTC)wind fromknots sea level pressurealtimeterstation pressurevisibilityair tempwater tempwave heightnotes
2020-Jul-04 08:45 080 5 gusting 6 21.7
2020-Jul-04 08:40 054 3 gusting 6 21.7
2020-Jul-04 08:35 070 4 gusting 5 21.7
2020-Jul-04 08:30 079 4 gusting 6 22.2
2020-Jul-04 08:25 084 5 gusting 6 22.2
2020-Jul-04 08:20 049 5 gusting 7 22.2
2020-Jul-04 08:15 065 4 gusting 6 22.2
2020-Jul-04 08:10 053 3 gusting 6 22.2
2020-Jul-04 08:05 059 4 gusting 6 22.2
2020-Jul-04 08:00 055 4 gusting 6 22.2
2020-Jul-04 07:55 036 5 gusting 6 22.2
2020-Jul-04 02:45 047 9 gusting 10 27.2
2020-Jul-04 02:40 056 9 gusting 11 27.8
2020-Jul-04 02:35 046 5 gusting 8 27.8
2020-Jul-04 02:30 021 3 gusting 7 27.8
2020-Jul-04 02:25 001 4 gusting 11 27.8
2020-Jul-04 02:20 023 7 gusting 11 27.8
2020-Jul-04 02:15 028 5 gusting 10 28.3
2020-Jul-04 02:10 050 9 gusting 13 28.3
2020-Jul-04 02:05 033 2 gusting 6 28.3
2020-Jul-04 02:00 332 3 gusting 6 28.3
2020-Jul-04 01:55 013 5 gusting 7 28.3
2020-Jul-03 20:45 330 7 gusting 9 33.9
2020-Jul-03 20:40 296 2 gusting 6 33.3
2020-Jul-03 20:35 314 6 gusting 7 33.3
2020-Jul-03 20:30 299 6 gusting 7 33.9
2020-Jul-03 20:25 322 6 gusting 8 33.9
2020-Jul-03 20:20 333 5 gusting 8 33.9
2020-Jul-03 20:15 307 6 gusting 11 33.9
2020-Jul-03 20:10 312 10 gusting 12 33.9
2020-Jul-03 20:05 310 10 gusting 13 33.3
2020-Jul-03 20:00 328 6 gusting 10 33.3
2020-Jul-03 19:55 33.3
2020-Jul-03 14:45 323 6 gusting 7 30.6
2020-Jul-03 14:40 026 2 gusting 10 30.6
2020-Jul-03 14:35 323 5 gusting 7 30.6
2020-Jul-03 14:30 331 6 gusting 7 30.6
2020-Jul-03 14:25 319 6 gusting 9 30.0
2020-Jul-03 14:20 340 4 gusting 8 30.0
2020-Jul-03 14:15 328 6 gusting 8 30.0
2020-Jul-03 14:10 321 9 gusting 9 29.4
2020-Jul-03 14:05 317 6 gusting 10 29.4
2020-Jul-03 14:00 322 8 gusting 10 29.4
2020-Jul-03 13:55 311 6 gusting 11 29.4
2020-Jul-03 08:45 346 1 gusting 2 21.7
2020-Jul-03 08:40 331 1 gusting 3 21.7
2020-Jul-03 08:35 313 2 gusting 3 21.7
2020-Jul-03 08:30 328 2 gusting 3 21.7
2020-Jul-03 08:25 352 2 gusting 2 21.7
2020-Jul-03 08:20 335 2 gusting 2 21.7
2020-Jul-03 08:15 326 2 gusting 3 21.7
2020-Jul-03 08:10 328 3 gusting 3 21.7
2020-Jul-03 08:05 323 2 gusting 3 21.7
2020-Jul-03 08:00 326 3 gusting 3 21.7
2020-Jul-03 07:55 306 2 gusting 2 21.7
2020-Jul-03 02:45 286 3 gusting 4 25.6
2020-Jul-03 02:40 282 3 gusting 5 25.6
2020-Jul-03 02:35 271 3 gusting 5 25.6
2020-Jul-03 02:30 287 2 gusting 5 25.6
2020-Jul-03 02:25 277 4 gusting 5 25.0
2020-Jul-03 02:20 278 4 gusting 5 25.0
2020-Jul-03 02:15 261 4 gusting 4 25.6
2020-Jul-03 02:10 259 3 gusting 3 25.6
2020-Jul-03 02:05 253 1 gusting 1 25.6
2020-Jul-03 02:00 246 0 gusting 1 25.6
2020-Jul-03 01:55 281 1 gusting 2 25.6
2020-Jul-02 20:45 248 6 gusting 8 31.1
2020-Jul-02 20:40 272 7 gusting 10 30.6
2020-Jul-02 20:35 299 8 gusting 11 30.6
2020-Jul-02 20:30 301 9 gusting 11 30.6
2020-Jul-02 20:25 290 6 gusting 11 31.1
2020-Jul-02 20:20 272 6 gusting 8 31.7
2020-Jul-02 20:15 297 5 gusting 7 31.7
2020-Jul-02 20:10 274 4 gusting 8 31.1
2020-Jul-02 20:05 279 5 gusting 10 31.1
2020-Jul-02 20:00 283 6 gusting 9 31.7
2020-Jul-02 19:55 292 5 gusting 8 31.7
2020-Jul-02 14:45 028 6 gusting 8 27.2
2020-Jul-02 14:40 030 3 gusting 8 27.2
2020-Jul-02 14:35 27.2
2020-Jul-02 14:30 27.2
2020-Jul-02 14:25 055 4 gusting 7 26.7
2020-Jul-02 14:20 014 3 gusting 6 26.7
2020-Jul-02 14:15 039 3 gusting 6 26.7
2020-Jul-02 14:10 352 1 gusting 7 26.1
2020-Jul-02 14:05 039 4 gusting 7 26.7
2020-Jul-02 14:00 353 1 gusting 6 26.1
2020-Jul-02 13:55 034 1 gusting 4 26.1